Time;durP1;ratioP1;P1;durP2;ratioP2;P2;SDS_P1;SDS_P2;PMS_P1;PMS_P2;Temp;Humidity;BMP_temperature;BMP_pressure;BME280_temperature;BME280_humidity;BME280_pressure;Samples;Min_cycle;Max_cycle;Signal;HPM_P1;HPM_P2
2023/06/05 00:02:26;;;;;;;4.05;2.88;;;;;;;-144.85;100.00;61331.59;5099433;28;32282;-70
2023/06/05 00:04:53;;;;;;;5.88;2.70;;;;;;;-144.85;100.00;61331.59;5085375;28;32355;-70
2023/06/05 00:07:20;;;;;;;5.82;3.22;;;;;;;-144.85;100.00;61331.59;5102373;28;31785;-70
2023/06/05 00:09:48;;;;;;;5.43;3.20;;;;;;;-144.85;100.00;61331.59;5100335;28;31400;-70
2023/06/05 00:12:15;;;;;;;5.93;3.35;;;;;;;-144.85;100.00;61331.59;5098513;28;31350;-70
2023/06/05 00:14:43;;;;;;;6.45;3.22;;;;;;;-144.85;100.00;61331.59;5097923;28;32499;-70
2023/06/05 00:17:11;;;;;;;6.13;3.05;;;;;;;-144.85;100.00;61331.59;5066342;28;31450;-70
2023/06/05 00:19:38;;;;;;;6.63;3.22;;;;;;;-144.85;100.00;61331.59;5064500;28;31851;-70
2023/06/05 00:22:05;;;;;;;5.45;3.03;;;;;;;-144.85;100.00;61331.59;5096019;28;31641;-70
2023/06/05 00:24:32;;;;;;;5.65;3.22;;;;;;;-144.85;100.00;61331.59;5061202;28;32643;-70
2023/06/05 00:27:00;;;;;;;4.82;3.13;;;;;;;-144.85;100.00;61331.59;5097900;28;31993;-70
2023/06/05 00:29:27;;;;;;;5.30;3.30;;;;;;;-144.85;100.00;61331.59;5046606;28;30831;-70
2023/06/05 00:31:54;;;;;;;6.05;3.63;;;;;;;-144.85;100.00;61331.59;5077667;28;31449;-70
2023/06/05 00:34:21;;;;;;;6.22;3.67;;;;;;;-144.85;100.00;61331.59;5062702;28;31259;-70
2023/06/05 00:36:51;;;;;;;6.32;3.67;;;;;;;-144.85;100.00;61331.59;5099926;28;32212;-70
2023/06/05 00:39:19;;;;;;;7.05;3.30;;;;;;;-144.85;100.00;61331.59;5044981;28;30476;-70
2023/06/05 00:41:46;;;;;;;6.63;3.38;;;;;;;-144.85;100.00;61331.59;5098075;28;31600;-70
2023/06/05 00:44:13;;;;;;;5.35;3.40;;;;;;;-144.85;100.00;61331.59;5054320;28;31031;-70
2023/06/05 00:46:41;;;;;;;8.65;3.90;;;;;;;-144.85;100.00;61331.59;5059856;28;32467;-70
2023/06/05 00:49:09;;;;;;;6.57;3.85;;;;;;;-144.85;100.00;61331.59;5077050;28;32661;-70
2023/06/05 00:51:36;;;;;;;7.50;3.78;;;;;;;-144.85;100.00;61331.59;5060609;28;32196;-70
2023/06/05 00:54:06;;;;;;;4.50;3.42;;;;;;;-144.85;100.00;61331.59;5077460;28;32099;-70
2023/06/05 00:56:35;;;;;;;5.70;3.65;;;;;;;-144.85;100.00;61331.59;5098577;27;33569;-70
2023/06/05 00:59:03;;;;;;;8.57;3.67;;;;;;;-144.85;100.00;61331.59;5098170;28;31916;-70
2023/06/05 01:01:32;;;;;;;5.63;4.10;;;;;;;-144.85;100.00;61331.59;5047831;28;30314;-70
2023/06/05 01:04:00;;;;;;;7.15;4.05;;;;;;;-144.85;100.00;61331.59;5098533;28;33642;-70
2023/06/05 01:06:30;;;;;;;6.30;3.72;;;;;;;-144.85;100.00;61331.59;5063808;28;32221;-70
2023/06/05 01:09:01;;;;;;;9.30;3.90;;;;;;;-144.85;100.00;61331.59;5070038;28;31014;-70
2023/06/05 01:11:38;;;;;;;8.40;3.92;;;;;;;-144.85;100.00;61331.59;5064546;28;32215;-70
2023/06/05 01:14:22;;;;;;;6.30;4.15;;;;;;;-144.85;100.00;61331.59;5096644;28;32370;-70
2023/06/05 01:16:53;;;;;;;8.75;4.10;;;;;;;-144.85;100.00;61331.59;5100145;28;32502;-70
2023/06/05 01:19:24;;;;;;;6.57;4.22;;;;;;;-144.85;100.00;61331.59;5066512;28;31049;-69
2023/06/05 01:21:52;;;;;;;6.30;4.10;;;;;;;-144.85;100.00;61331.59;5081540;28;31272;-69
2023/06/05 01:24:22;;;;;;;6.13;4.32;;;;;;;-144.85;100.00;61331.59;5084202;28;30891;-70
2023/06/05 01:27:15;;;;;;;8.40;4.50;;;;;;;-144.85;100.00;61331.59;5081335;28;31349;-70
2023/06/05 01:29:56;;;;;;;6.82;4.40;;;;;;;-144.85;100.00;61331.59;5094622;28;32255;-70
2023/06/05 01:32:46;;;;;;;7.38;4.22;;;;;;;-144.85;100.00;61331.59;5052035;28;30415;-70
2023/06/05 01:35:18;;;;;;;5.50;4.30;;;;;;;-144.85;100.00;61331.59;5094380;28;32363;-70
2023/06/05 01:37:49;;;;;;;6.22;4.28;;;;;;;-144.85;100.00;61331.59;5098545;28;33001;-70
2023/06/05 01:40:20;;;;;;;8.18;4.43;;;;;;;-144.85;100.00;61331.59;5096588;28;32111;-70
2023/06/05 01:42:50;;;;;;;7.30;4.47;;;;;;;-144.85;100.00;61331.59;5079956;28;29874;-70
2023/06/05 01:45:18;;;;;;;6.65;4.55;;;;;;;-144.85;100.00;61331.59;5098027;28;32141;-70
2023/06/05 01:47:48;;;;;;;8.20;4.47;;;;;;;-144.85;100.00;61331.59;5063290;28;33166;-70
2023/06/05 01:50:16;;;;;;;5.95;4.07;;;;;;;-144.85;100.00;61331.59;5079782;28;31691;-70
2023/06/05 01:52:47;;;;;;;8.27;4.55;;;;;;;-144.85;100.00;61331.59;5050905;28;31394;-70
2023/06/05 01:55:18;;;;;;;7.60;4.60;;;;;;;-144.85;100.00;61331.59;5064561;28;30729;-70
2023/06/05 01:57:45;;;;;;;9.38;4.47;;;;;;;-144.85;100.00;61331.59;5098077;28;33007;-70
2023/06/05 02:00:15;;;;;;;8.80;4.97;;;;;;;-144.85;100.00;61331.59;5054532;28;30999;-70
2023/06/05 02:02:47;;;;;;;7.63;4.70;;;;;;;-144.85;100.00;61331.59;5098029;28;31539;-70
2023/06/05 02:05:16;;;;;;;8.00;4.97;;;;;;;-144.85;100.00;61331.59;5099858;28;33396;-70
2023/06/05 02:07:48;;;;;;;8.98;4.35;;;;;;;-144.85;100.00;61331.59;5067303;28;31029;-70
2023/06/05 02:10:18;;;;;;;8.73;5.20;;;;;;;-144.85;100.00;61331.59;5081723;28;30647;-69
2023/06/05 02:12:47;;;;;;;7.50;4.88;;;;;;;-144.85;100.00;61331.59;5098882;28;33550;-70
2023/06/05 02:15:14;;;;;;;8.30;5.15;;;;;;;-144.85;100.00;61331.59;5097658;28;32226;-70
2023/06/05 02:17:50;;;;;;;10.30;5.20;;;;;;;-144.85;100.00;61331.59;5098376;28;32343;-70
2023/06/05 02:20:19;;;;;;;7.05;4.88;;;;;;;-144.85;100.00;61331.59;5086333;28;31889;-70
2023/06/05 02:22:49;;;;;;;8.63;5.03;;;;;;;-144.85;100.00;61331.59;5097955;28;31243;-70
2023/06/05 02:25:17;;;;;;;10.25;5.45;;;;;;;-144.85;100.00;61331.59;5098062;28;32416;-70
2023/06/05 02:27:48;;;;;;;9.95;5.07;;;;;;;-144.85;100.00;61331.59;5095782;28;33088;-70
2023/06/05 02:30:15;;;;;;;9.75;5.43;;;;;;;-144.85;100.00;61331.59;5095471;28;31976;-70
2023/06/05 02:32:46;;;;;;;8.15;5.57;;;;;;;-144.85;100.00;61331.59;5100094;28;31668;-70
2023/06/05 02:35:13;;;;;;;7.80;4.88;;;;;;;-144.85;100.00;61331.59;5064310;28;31203;-70
2023/06/05 02:37:44;;;;;;;7.10;4.78;;;;;;;-144.85;100.00;61331.59;5078319;28;31285;-70
2023/06/05 02:40:13;;;;;;;9.48;5.30;;;;;;;-144.85;100.00;61331.59;5104321;28;31962;-70
2023/06/05 02:42:41;;;;;;;8.90;5.70;;;;;;;-144.85;100.00;61331.59;5109554;28;32977;-70
2023/06/05 02:45:08;;;;;;;8.43;5.15;;;;;;;-144.85;100.00;61331.59;5068886;28;32214;-70
2023/06/05 02:47:36;;;;;;;9.55;5.25;;;;;;;-144.85;100.00;61331.59;5078671;28;31254;-70
2023/06/05 02:50:05;;;;;;;9.50;5.15;;;;;;;-144.85;100.00;61331.59;5064438;28;31408;-70
2023/06/05 02:52:38;;;;;;;9.35;5.80;;;;;;;-144.85;100.00;61331.59;5063982;28;31496;-70
2023/06/05 02:55:13;;;;;;;8.55;5.35;;;;;;;-144.85;100.00;61331.59;5062352;28;31225;-70
2023/06/05 02:57:42;;;;;;;8.82;5.50;;;;;;;-144.85;100.00;61331.59;5078652;28;32711;-70
2023/06/05 03:00:16;;;;;;;8.18;5.15;;;;;;;-144.85;100.00;61331.59;5066389;28;30880;-70
2023/06/05 03:02:48;;;;;;;11.35;6.10;;;;;;;-144.85;100.00;61331.59;5062745;28;31473;-70
2023/06/05 03:05:24;;;;;;;9.63;5.32;;;;;;;-144.85;100.00;61331.59;5078128;28;31410;-70
2023/06/05 03:07:56;;;;;;;8.50;5.57;;;;;;;-144.85;100.00;61331.59;5085632;28;31011;-70
2023/06/05 03:10:23;;;;;;;9.88;5.40;;;;;;;-144.85;100.00;61331.59;5081517;28;30995;-70
2023/06/05 03:12:51;;;;;;;10.63;5.75;;;;;;;-144.85;100.00;61331.59;5062749;28;29938;-70
2023/06/05 03:15:19;;;;;;;8.40;5.20;;;;;;;-144.85;100.00;61331.59;5055372;28;32837;-71
2023/06/05 03:17:48;;;;;;;8.98;5.85;;;;;;;-144.85;100.00;61331.59;5065742;28;30915;-71
2023/06/05 03:20:19;;;;;;;9.77;5.35;;;;;;;-144.85;100.00;61331.59;5073320;28;30830;-70
2023/06/05 03:22:46;;;;;;;9.38;5.95;;;;;;;-144.85;100.00;61331.59;5082905;28;30788;-70
2023/06/05 03:25:14;;;;;;;11.18;5.65;;;;;;;-144.85;100.00;61331.59;5061963;28;32400;-70
2023/06/05 03:27:44;;;;;;;8.75;6.03;;;;;;;-144.85;100.00;61331.59;5059874;28;31198;-70
2023/06/05 03:30:16;;;;;;;9.45;5.70;;;;;;;-144.85;100.00;61331.59;5062955;28;30840;-70
2023/06/05 03:32:47;;;;;;;9.23;6.18;;;;;;;-144.85;100.00;61331.59;5068422;28;31829;-70
2023/06/05 03:35:14;;;;;;;9.63;6.10;;;;;;;-144.85;100.00;61331.59;5063303;28;32619;-70
2023/06/05 03:37:42;;;;;;;10.68;5.93;;;;;;;-144.85;100.00;61331.59;5082385;28;31340;-70
2023/06/05 03:40:10;;;;;;;9.20;6.10;;;;;;;-144.85;100.00;61331.59;5099035;28;31991;-70
2023/06/05 03:42:38;;;;;;;11.27;5.90;;;;;;;-144.85;100.00;61331.59;5061727;28;32230;-70
2023/06/05 03:45:06;;;;;;;9.60;5.82;;;;;;;-144.85;100.00;61331.59;5078108;28;32764;-70
2023/06/05 03:47:34;;;;;;;11.05;6.35;;;;;;;-144.85;100.00;61331.59;5082703;28;31124;-70
2023/06/05 03:50:03;;;;;;;11.10;6.40;;;;;;;-144.85;100.00;61331.59;5049624;28;31979;-70
2023/06/05 03:52:37;;;;;;;11.50;6.03;;;;;;;-144.85;100.00;61331.59;5079633;28;30547;-69
2023/06/05 03:55:07;;;;;;;14.13;6.55;;;;;;;-144.85;100.00;61331.59;5046483;28;31432;-69
2023/06/05 03:57:37;;;;;;;9.25;6.10;;;;;;;-144.85;100.00;61331.59;5076718;28;33212;-70
2023/06/05 04:00:09;;;;;;;10.75;6.60;;;;;;;-144.85;100.00;61331.59;5077146;28;32206;-70
2023/06/05 04:02:43;;;;;;;9.45;6.10;;;;;;;-144.85;100.00;61331.59;5080182;28;30396;-70
2023/06/05 04:05:14;;;;;;;10.13;6.30;;;;;;;-144.85;100.00;61331.59;5063402;28;31361;-71
2023/06/05 04:07:41;;;;;;;11.48;6.90;;;;;;;-144.85;100.00;61331.59;5095311;28;32187;-70
2023/06/05 04:10:09;;;;;;;10.32;6.93;;;;;;;-144.85;100.00;61331.59;5063474;28;30900;-71
2023/06/05 04:12:36;;;;;;;12.77;6.93;;;;;;;-144.85;100.00;61331.59;5096605;28;32177;-71
2023/06/05 04:15:06;;;;;;;11.50;7.15;;;;;;;-144.85;100.00;61331.59;5078149;28;31999;-71
2023/06/05 04:17:34;;;;;;;9.60;6.43;;;;;;;-144.85;100.00;61331.59;5077869;28;32020;-71
2023/06/05 04:20:01;;;;;;;9.95;6.72;;;;;;;-144.85;100.00;61331.59;5080436;28;32039;-71
2023/06/05 04:22:29;;;;;;;10.88;6.43;;;;;;;-144.85;100.00;61331.59;5046116;28;30492;-71
2023/06/05 04:24:56;;;;;;;13.20;7.15;;;;;;;-144.85;100.00;61331.59;5077120;28;32673;-71
2023/06/05 04:27:28;;;;;;;12.40;6.75;;;;;;;-144.85;100.00;61331.59;5077134;28;31271;-70
2023/06/05 04:29:56;;;;;;;10.52;6.50;;;;;;;-144.85;100.00;61331.59;5048090;28;31166;-71
2023/06/05 04:32:23;;;;;;;9.45;6.18;;;;;;;-144.85;100.00;61331.59;5061385;28;30699;-71
2023/06/05 04:34:52;;;;;;;12.27;7.35;;;;;;;-144.85;100.00;61331.59;5078836;28;32589;-71
2023/06/05 04:37:19;;;;;;;11.48;7.03;;;;;;;-144.85;100.00;61331.59;5101392;28;32071;-71
2023/06/05 04:39:46;;;;;;;10.75;6.57;;;;;;;-144.85;100.00;61331.59;5106577;28;32688;-71
2023/06/05 04:42:14;;;;;;;11.32;7.45;;;;;;;-144.85;100.00;61331.59;5085382;28;31494;-71
2023/06/05 04:44:56;;;;;;;12.13;6.90;;;;;;;-144.85;100.00;61331.59;5067588;28;32959;-71
2023/06/05 04:47:23;;;;;;;12.00;6.75;;;;;;;-144.85;100.00;61331.59;5078248;28;32468;-71
2023/06/05 04:49:52;;;;;;;9.68;6.65;;;;;;;-144.85;100.00;61331.59;5081150;28;31376;-71
2023/06/05 04:52:21;;;;;;;10.02;6.60;;;;;;;-144.85;100.00;61331.59;5099757;28;32282;-71
2023/06/05 04:54:49;;;;;;;10.45;7.13;;;;;;;-144.85;100.00;61331.59;5067810;28;31625;-71
2023/06/05 04:57:18;;;;;;;12.60;7.00;;;;;;;-144.85;100.00;61331.59;5066359;28;32539;-71
2023/06/05 04:59:45;;;;;;;11.60;7.00;;;;;;;-144.85;100.00;61331.59;5099555;28;32222;-71
2023/06/05 05:02:15;;;;;;;12.55;6.93;;;;;;;-144.85;100.00;61331.59;5064573;28;30447;-72
2023/06/05 05:04:44;;;;;;;11.98;7.40;;;;;;;-144.85;100.00;61331.59;5065935;28;31303;-71
2023/06/05 05:07:15;;;;;;;12.35;6.95;;;;;;;-144.85;100.00;61331.59;5081751;28;31385;-71
2023/06/05 05:09:43;;;;;;;11.00;7.22;;;;;;;-144.85;100.00;61331.59;5079193;28;31680;-71
2023/06/05 05:12:11;;;;;;;10.43;6.88;;;;;;;-144.85;100.00;61331.59;5068361;28;31097;-70
2023/06/05 05:14:40;;;;;;;11.95;7.13;;;;;;;-144.85;100.00;61331.59;5078899;28;31268;-71
2023/06/05 05:17:07;;;;;;;12.45;7.30;;;;;;;-144.85;100.00;61331.59;5072668;28;30885;-71
2023/06/05 05:19:40;;;;;;;10.43;6.82;;;;;;;-144.85;100.00;61331.59;5074437;28;30238;-71
2023/06/05 05:22:08;;;;;;;12.05;6.88;;;;;;;-144.85;100.00;61331.59;5079419;28;30774;-71
2023/06/05 05:24:36;;;;;;;10.55;6.82;;;;;;;-144.85;100.00;61331.59;5083018;28;32325;-71
2023/06/05 05:27:03;;;;;;;11.82;6.43;;;;;;;-144.85;100.00;61331.59;5080946;28;32472;-71
2023/06/05 05:29:33;;;;;;;11.07;7.10;;;;;;;-144.85;100.00;61331.59;5085076;28;30843;-71
2023/06/05 05:32:02;;;;;;;11.07;7.20;;;;;;;-144.85;100.00;61331.59;5064991;28;30266;-71
2023/06/05 05:34:29;;;;;;;14.07;7.35;;;;;;;-144.85;100.00;61331.59;5100068;28;32535;-70
2023/06/05 05:36:57;;;;;;;11.68;7.18;;;;;;;-144.85;100.00;61331.59;5102676;28;32678;-71
2023/06/05 05:39:24;;;;;;;10.00;7.07;;;;;;;-144.85;100.00;61331.59;5099442;28;31741;-71
2023/06/05 05:41:51;;;;;;;13.98;6.82;;;;;;;-144.85;100.00;61331.59;5066311;28;30445;-71
2023/06/05 05:44:19;;;;;;;10.60;7.03;;;;;;;-144.85;100.00;61331.59;5098459;28;32310;-72
2023/06/05 05:46:47;;;;;;;9.25;6.68;;;;;;;-144.85;100.00;61331.59;5080559;28;32933;-71
2023/06/05 05:49:14;;;;;;;12.73;7.30;;;;;;;-144.85;100.00;61331.59;5080420;28;30678;-71
2023/06/05 05:51:41;;;;;;;10.93;7.25;;;;;;;-144.85;100.00;61331.59;5101343;28;31269;-71
2023/06/05 05:54:08;;;;;;;10.73;6.85;;;;;;;-144.85;100.00;61331.59;5049340;28;30612;-71
2023/06/05 05:56:36;;;;;;;12.63;7.20;;;;;;;-144.85;100.00;61331.59;5099856;28;32906;-72
2023/06/05 05:59:03;;;;;;;11.40;6.68;;;;;;;-144.85;100.00;61331.59;5083908;28;31668;-71
2023/06/05 06:01:32;;;;;;;10.88;6.72;;;;;;;-144.85;100.00;61331.59;5087266;28;30662;-71
2023/06/05 06:03:59;;;;;;;10.15;6.88;;;;;;;-144.85;100.00;61331.59;5094615;28;32241;-71
2023/06/05 06:06:27;;;;;;;10.70;6.85;;;;;;;-144.85;100.00;61331.59;5100574;28;31824;-71
2023/06/05 06:08:54;;;;;;;15.75;6.63;;;;;;;-144.85;100.00;61331.59;5081421;28;31940;-71
2023/06/05 06:11:21;;;;;;;11.20;6.80;;;;;;;-144.85;100.00;61331.59;5094899;28;30543;-71
2023/06/05 06:13:49;;;;;;;11.02;6.88;;;;;;;-144.85;100.00;61331.59;5098905;28;32199;-71
2023/06/05 06:16:16;;;;;;;17.83;7.18;;;;;;;-144.85;100.00;61331.59;5096477;28;33498;-71
2023/06/05 06:18:43;;;;;;;11.75;7.03;;;;;;;-144.85;100.00;61331.59;5103054;28;31981;-71
2023/06/05 06:21:11;;;;;;;12.38;7.30;;;;;;;-144.85;100.00;61331.59;5108833;28;31382;-71
2023/06/05 06:23:38;;;;;;;13.90;7.35;;;;;;;-144.85;100.00;61331.59;5102557;28;32099;-71
2023/06/05 06:26:06;;;;;;;14.05;7.00;;;;;;;-144.85;100.00;61331.59;5098646;28;33181;-71
2023/06/05 06:28:33;;;;;;;13.25;7.05;;;;;;;-144.85;100.00;61331.59;5102038;28;31937;-71
2023/06/05 06:31:00;;;;;;;13.77;7.30;;;;;;;-144.85;100.00;61331.59;5097852;28;32640;-71
2023/06/05 06:33:29;;;;;;;11.02;6.40;;;;;;;-144.85;100.00;61331.59;5101522;28;32457;-71
2023/06/05 06:35:58;;;;;;;10.63;6.75;;;;;;;-144.85;100.00;61331.59;5101826;28;32023;-71
2023/06/05 06:38:29;;;;;;;12.25;6.63;;;;;;;-144.85;100.00;61331.59;5080406;28;31957;-71
2023/06/05 06:40:58;;;;;;;12.32;6.95;;;;;;;-144.85;100.00;61331.59;5076142;28;31205;-71
2023/06/05 06:43:25;;;;;;;11.02;6.70;;;;;;;-144.85;100.00;61331.59;5062272;28;31243;-71
2023/06/05 06:46:01;;;;;;;10.18;6.72;;;;;;;-144.85;100.00;61331.59;5095123;28;32185;-71
2023/06/05 06:48:28;;;;;;;11.75;7.10;;;;;;;-144.85;100.00;61331.59;5101744;28;32160;-71
2023/06/05 06:50:56;;;;;;;11.10;7.43;;;;;;;-144.85;100.00;61331.59;5095238;28;31372;-71
2023/06/05 06:53:23;;;;;;;10.57;6.75;;;;;;;-144.85;100.00;61331.59;5097698;28;33446;-71
2023/06/05 06:55:50;;;;;;;11.75;7.03;;;;;;;-144.85;100.00;61331.59;5103879;28;32049;-71
2023/06/05 06:58:17;;;;;;;14.05;7.22;;;;;;;-144.85;100.00;61331.59;5079050;28;30909;-71
2023/06/05 07:00:45;;;;;;;15.93;6.90;;;;;;;-144.85;100.00;61331.59;5079244;28;30653;-71
2023/06/05 07:03:12;;;;;;;10.90;7.22;;;;;;;-144.85;100.00;61331.59;5079095;28;33496;-71
2023/06/05 07:05:40;;;;;;;11.05;7.05;;;;;;;-144.85;100.00;61331.59;5098043;28;32160;-71
2023/06/05 07:08:07;;;;;;;11.90;7.80;;;;;;;-144.85;100.00;61331.59;5062117;28;32136;-71
2023/06/05 07:10:34;;;;;;;12.68;7.28;;;;;;;-144.85;100.00;61331.59;5090441;28;32672;-71
2023/06/05 07:13:01;;;;;;;10.43;6.95;;;;;;;-144.85;100.00;61331.59;5078873;28;31295;-71
2023/06/05 07:15:28;;;;;;;12.52;7.10;;;;;;;-144.85;100.00;61331.59;5094797;28;31066;-71
2023/06/05 07:17:56;;;;;;;11.02;7.40;;;;;;;-144.85;100.00;61331.59;5097850;28;31893;-71
2023/06/05 07:20:23;;;;;;;11.25;7.25;;;;;;;-144.85;100.00;61331.59;5097693;28;31484;-72
2023/06/05 07:22:50;;;;;;;12.57;6.75;;;;;;;-144.85;100.00;61331.59;5098044;28;32057;-71
2023/06/05 07:25:17;;;;;;;10.32;7.47;;;;;;;-144.85;100.00;61331.59;5097430;28;32673;-71
2023/06/05 07:27:45;;;;;;;10.25;7.10;;;;;;;-144.85;100.00;61331.59;5097253;28;32089;-71
2023/06/05 07:30:15;;;;;;;11.70;7.15;;;;;;;-144.85;100.00;61331.59;5097868;28;32396;-71
2023/06/05 07:32:42;;;;;;;14.55;7.40;;;;;;;-144.85;100.00;61331.59;5097583;28;32322;-71
2023/06/05 07:35:10;;;;;;;10.48;7.00;;;;;;;-144.85;100.00;61331.59;5084308;28;32164;-71
2023/06/05 07:37:38;;;;;;;10.50;7.00;;;;;;;-144.85;100.00;61331.59;5097231;28;32976;-71
2023/06/05 07:40:06;;;;;;;12.40;7.60;;;;;;;-144.85;100.00;61331.59;5097818;28;32688;-71
2023/06/05 07:42:34;;;;;;;12.88;7.53;;;;;;;-144.85;100.00;61331.59;5066730;28;33017;-71
2023/06/05 07:45:02;;;;;;;14.05;7.32;;;;;;;-144.85;100.00;61331.59;5073631;28;31777;-71
2023/06/05 07:47:29;;;;;;;12.68;7.47;;;;;;;-144.85;100.00;61331.59;5095215;28;31829;-71
2023/06/05 07:49:59;;;;;;;11.82;7.68;;;;;;;-144.85;100.00;61331.59;5099851;28;31395;-71
2023/06/05 07:52:27;;;;;;;10.93;7.15;;;;;;;-144.85;100.00;61331.59;5104941;28;32418;-71
2023/06/05 07:54:54;;;;;;;10.38;6.95;;;;;;;-144.85;100.00;61331.59;5110845;28;32141;-72
2023/06/05 07:57:23;;;;;;;12.82;7.20;;;;;;;-144.85;100.00;61331.59;5096069;28;31938;-72
2023/06/05 07:59:51;;;;;;;11.82;7.20;;;;;;;-144.85;100.00;61331.59;5097799;28;31395;-72
2023/06/05 08:02:18;;;;;;;12.88;7.38;;;;;;;-144.85;100.00;61331.59;5097213;28;33821;-72
2023/06/05 08:04:46;;;;;;;10.90;7.45;;;;;;;-144.85;100.00;61331.59;5078715;28;30974;-72
2023/06/05 08:07:13;;;;;;;15.02;8.23;;;;;;;-144.85;100.00;61331.59;5096149;28;31984;-72
2023/06/05 08:09:41;;;;;;;11.98;7.38;;;;;;;-144.85;100.00;61331.59;5097167;28;31444;-72
2023/06/05 08:12:08;;;;;;;12.73;8.38;;;;;;;-144.85;100.00;61331.59;5066240;28;33726;-72
2023/06/05 08:14:36;;;;;;;11.63;7.20;;;;;;;-144.85;100.00;61331.59;5097049;28;31568;-71
2023/06/05 08:17:04;;;;;;;12.35;7.32;;;;;;;-144.85;100.00;61331.59;5078715;28;32028;-71
2023/06/05 08:19:31;;;;;;;12.27;7.35;;;;;;;-144.85;100.00;61331.59;5066440;28;32040;-72
2023/06/05 08:21:58;;;;;;;15.45;7.75;;;;;;;-144.85;100.00;61331.59;5096532;28;33505;-72
2023/06/05 08:24:26;;;;;;;11.57;7.43;;;;;;;-144.85;100.00;61331.59;5079558;28;33717;-72
2023/06/05 08:26:54;;;;;;;11.32;6.90;;;;;;;-144.85;100.00;61331.59;5097294;28;32811;-72
2023/06/05 08:29:21;;;;;;;9.73;7.10;;;;;;;-144.85;100.00;61331.59;5096797;28;31572;-72
2023/06/05 08:31:48;;;;;;;11.43;6.85;;;;;;;-144.85;100.00;61331.59;5092167;28;32624;-72
2023/06/05 08:34:16;;;;;;;12.00;7.63;;;;;;;-144.85;100.00;61331.59;5096987;28;32981;-72
2023/06/05 08:36:44;;;;;;;11.95;7.32;;;;;;;-144.85;100.00;61331.59;5096549;28;31948;-72
2023/06/05 08:39:12;;;;;;;13.63;7.15;;;;;;;-144.85;100.00;61331.59;5096061;28;31339;-72
2023/06/05 08:41:41;;;;;;;9.50;6.53;;;;;;;-144.85;100.00;61331.59;5084301;28;32528;-71
2023/06/05 08:44:11;;;;;;;10.82;7.32;;;;;;;-144.85;100.00;61331.59;5094854;28;31967;-71
2023/06/05 08:46:40;;;;;;;11.05;6.93;;;;;;;-144.85;100.00;61331.59;5097048;28;31460;-72
2023/06/05 08:49:10;;;;;;;10.25;6.65;;;;;;;-144.85;100.00;61331.59;5095918;28;33081;-72
2023/06/05 08:51:40;;;;;;;12.07;6.63;;;;;;;-144.85;100.00;61331.59;5094476;28;31486;-72
2023/06/05 08:54:12;;;;;;;9.32;6.15;;;;;;;-144.85;100.00;61331.59;5095917;28;31799;-72
2023/06/05 08:56:41;;;;;;;12.00;7.28;;;;;;;-144.85;100.00;61331.59;5094871;28;31836;-72
2023/06/05 08:59:14;;;;;;;11.80;7.20;;;;;;;-144.85;100.00;61331.59;5095687;28;32085;-72
2023/06/05 09:01:43;;;;;;;12.25;7.28;;;;;;;-144.85;100.00;61331.59;5093652;28;32345;-72
2023/06/05 09:04:11;;;;;;;10.25;7.20;;;;;;;-144.85;100.00;61331.59;5042463;28;31859;-72
2023/06/05 09:06:39;;;;;;;11.95;6.75;;;;;;;-144.85;100.00;61331.59;5075260;28;31777;-72
2023/06/05 09:09:07;;;;;;;12.00;7.75;;;;;;;-144.85;100.00;61331.59;5092342;28;31497;-72
2023/06/05 09:11:36;;;;;;;12.18;7.15;;;;;;;-144.85;100.00;61331.59;5113457;28;32454;-72
2023/06/05 09:14:03;;;;;;;11.02;6.90;;;;;;;-144.85;100.00;61331.59;5100016;28;32389;-72
2023/06/05 09:16:39;;;;;;;9.23;6.68;;;;;;;-144.85;100.00;61331.59;5096797;28;32802;-72
2023/06/05 09:19:06;;;;;;;10.73;7.40;;;;;;;-144.85;100.00;61331.59;5099000;28;31530;-72
2023/06/05 09:21:35;;;;;;;10.98;6.93;;;;;;;-144.85;100.00;61331.59;5100028;28;32152;-72
2023/06/05 09:24:22;;;;;;;11.07;7.10;;;;;;;-144.85;100.00;61331.59;5099244;28;31909;-72
2023/06/05 09:27:00;;;;;;;10.82;7.13;;;;;;;-144.85;100.00;61331.59;5095507;28;32433;-72
2023/06/05 09:29:28;;;;;;;11.50;6.85;;;;;;;-144.85;100.00;61331.59;5061291;28;30416;-72
2023/06/05 09:31:57;;;;;;;10.40;6.38;;;;;;;-144.85;100.00;61331.59;5099075;28;33244;-72
2023/06/05 09:34:26;;;;;;;9.77;6.05;;;;;;;-144.85;100.00;61331.59;5099134;28;31953;-71
2023/06/05 09:36:55;;;;;;;8.38;6.93;;;;;;;-144.85;100.00;61331.59;5099883;28;32882;-72
2023/06/05 09:39:24;;;;;;;10.80;7.38;;;;;;;-144.85;100.00;61331.59;5094223;28;32541;-72
2023/06/05 09:41:52;;;;;;;12.13;7.00;;;;;;;-144.85;100.00;61331.59;5084643;28;33230;-72
2023/06/05 09:44:20;;;;;;;10.80;7.30;;;;;;;-144.85;100.00;61331.59;5097554;28;32293;-72
2023/06/05 09:47:00;;;;;;;9.20;6.45;;;;;;;-144.85;100.00;61331.59;5101861;28;31606;-72
2023/06/05 09:49:40;;;;;;;11.18;7.07;;;;;;;-144.85;100.00;61331.59;5080730;28;32473;-72
2023/06/05 09:52:10;;;;;;;9.68;6.88;;;;;;;-144.85;100.00;61331.59;5054326;28;31090;-72
2023/06/05 09:54:39;;;;;;;10.20;6.78;;;;;;;-144.85;100.00;61331.59;5098237;28;32001;-72
2023/06/05 09:57:09;;;;;;;10.00;6.93;;;;;;;-144.85;100.00;61331.59;5080562;28;32619;-72
2023/06/05 09:59:45;;;;;;;9.98;6.97;;;;;;;-144.85;100.00;61331.59;5098675;28;31153;-72
2023/06/05 10:02:17;;;;;;;10.10;7.05;;;;;;;-144.85;100.00;61331.59;5096476;28;32691;-73
2023/06/05 10:05:11;;;;;;;10.45;6.55;;;;;;;-144.85;100.00;61331.59;5069254;28;32021;-72
2023/06/05 10:07:39;;;;;;;9.35;6.35;;;;;;;-144.85;100.00;61331.59;5076892;28;32480;-72
2023/06/05 10:10:09;;;;;;;8.82;6.10;;;;;;;-144.85;100.00;61331.59;5098487;28;31028;-72
2023/06/05 10:12:37;;;;;;;9.60;6.60;;;;;;;-144.85;100.00;61331.59;5082850;28;32824;-72
2023/06/05 10:15:06;;;;;;;10.23;5.78;;;;;;;-144.85;100.00;61331.59;5102102;28;33232;-72
2023/06/05 10:17:36;;;;;;;9.82;5.53;;;;;;;-144.85;100.00;61331.59;5080334;28;33141;-72
2023/06/05 10:20:06;;;;;;;9.68;6.28;;;;;;;-144.85;100.00;61331.59;5099888;28;31375;-72
2023/06/05 10:22:36;;;;;;;11.73;5.95;;;;;;;-144.85;100.00;61331.59;5111778;28;33105;-72
2023/06/05 10:25:06;;;;;;;8.80;5.82;;;;;;;-144.85;100.00;61331.59;5099997;28;33098;-72
2023/06/05 10:27:56;;;;;;;8.40;6.18;;;;;;;-144.85;100.00;61331.59;5084527;28;31280;-72
2023/06/05 10:30:42;;;;;;;9.70;6.00;;;;;;;-144.85;100.00;61331.59;5110867;28;32522;-72
2023/06/05 10:33:31;;;;;;;11.45;6.40;;;;;;;-144.85;100.00;61331.59;5102804;28;33256;-73
2023/06/05 10:36:16;;;;;;;10.40;6.03;;;;;;;-144.85;100.00;61331.59;5075804;28;30913;-73
2023/06/05 10:38:44;;;;;;;8.68;5.95;;;;;;;-144.85;100.00;61331.59;5063222;28;32125;-74
2023/06/05 10:41:12;;;;;;;10.70;6.53;;;;;;;-144.85;100.00;61331.59;5104420;28;32740;-73
2023/06/05 10:43:49;;;;;;;10.85;6.07;;;;;;;-144.85;100.00;61331.59;5088636;28;32778;-73
2023/06/05 10:46:34;;;;;;;11.32;6.88;;;;;;;-144.85;100.00;61331.59;5060335;28;32097;-73
2023/06/05 10:49:07;;;;;;;10.27;6.07;;;;;;;-144.85;100.00;61331.59;5060804;28;33228;-74
2023/06/05 10:51:39;;;;;;;10.02;5.95;;;;;;;-144.85;100.00;61331.59;5062617;28;30732;-73
2023/06/05 10:54:08;;;;;;;25.67;6.97;;;;;;;-144.85;100.00;61331.59;5097660;28;33174;-73
2023/06/05 10:57:02;;;;;;;9.45;5.63;;;;;;;-144.85;100.00;61331.59;5097979;28;32197;-74
2023/06/05 10:59:32;;;;;;;7.72;5.55;;;;;;;-144.85;100.00;61331.59;5091513;28;31873;-73
2023/06/05 11:02:09;;;;;;;9.80;6.30;;;;;;;-144.85;100.00;61331.59;5098045;28;32456;-73
2023/06/05 11:04:51;;;;;;;9.90;5.82;;;;;;;-144.85;100.00;61331.59;5085527;28;32393;-72
2023/06/05 11:07:30;;;;;;;12.25;6.18;;;;;;;-144.85;100.00;61331.59;5073346;28;32440;-73
2023/06/05 11:10:08;;;;;;;6.50;4.93;;;;;;;-144.85;100.00;61331.59;5086139;28;32842;-73
2023/06/05 11:12:38;;;;;;;10.18;5.00;;;;;;;-144.85;100.00;61331.59;5097707;28;31592;-73
2023/06/05 11:15:08;;;;;;;14.65;5.20;;;;;;;-144.85;100.00;61331.59;5078912;28;32533;-73
2023/06/05 11:17:35;;;;;;;10.00;5.20;;;;;;;-144.85;100.00;61331.59;5097324;28;32518;-72